createdAt,value
2024-03-22T00:00:22.000Z,4.82
2024-03-22T00:01:22.000Z,3.28
2024-03-22T00:02:22.000Z,3.49
2024-03-22T00:03:22.000Z,3.5
2024-03-22T00:04:22.000Z,8.36
2024-03-22T00:05:23.000Z,3.42
2024-03-22T00:06:22.000Z,4.19
2024-03-22T00:07:22.000Z,4.25
2024-03-22T00:08:31.000Z,5
2024-03-22T00:09:22.000Z,4.29
2024-03-22T00:10:23.000Z,4.6
2024-03-22T00:11:22.000Z,3.49
2024-03-22T00:12:23.000Z,4.03
2024-03-22T00:13:22.000Z,5.03
2024-03-22T00:14:23.000Z,3.49
2024-03-22T00:15:22.000Z,4.24
2024-03-22T00:16:23.000Z,4.06
2024-03-22T00:17:22.000Z,5.56
2024-03-22T00:18:22.000Z,3.71
2024-03-22T00:19:23.000Z,3.89
2024-03-22T00:20:22.000Z,3.84
2024-03-22T00:21:22.000Z,4.95
2024-03-22T00:22:25.000Z,3.7
2024-03-22T00:23:23.000Z,4.55
2024-03-22T00:24:22.000Z,6.55
2024-03-22T00:25:22.000Z,4.32
2024-03-22T00:26:23.000Z,4.59
2024-03-22T00:27:22.000Z,4.12
2024-03-22T00:28:23.000Z,4.1
2024-03-22T00:29:25.000Z,4.86
2024-03-22T00:30:23.000Z,6
2024-03-22T00:31:22.000Z,4.05
2024-03-22T00:32:22.000Z,3.79
2024-03-22T00:33:22.000Z,3.97
2024-03-22T00:34:26.000Z,2.88
2024-03-22T00:35:23.000Z,7.15
2024-03-22T00:36:26.000Z,4.45
2024-03-22T00:37:22.000Z,2.64
2024-03-22T00:38:22.000Z,4.11
2024-03-22T00:39:30.000Z,3.71
2024-03-22T00:40:22.000Z,4.39
2024-03-22T00:41:22.000Z,3.39
2024-03-22T00:42:22.000Z,3.42
2024-03-22T00:43:22.000Z,3.12
2024-03-22T00:44:22.000Z,2.38
2024-03-22T00:45:22.000Z,2.64
2024-03-22T00:46:22.000Z,4.8
2024-03-22T00:47:22.000Z,2.45
2024-03-22T00:48:22.000Z,5.16
2024-03-22T00:49:22.000Z,3.82
2024-03-22T00:50:22.000Z,4.76
2024-03-22T00:51:30.000Z,5.41
2024-03-22T00:52:27.000Z,3.21
2024-03-22T00:53:25.000Z,4.31
2024-03-22T00:54:25.000Z,4.22
2024-03-22T00:55:22.000Z,3.38
2024-03-22T00:56:22.000Z,2.72
2024-03-22T00:57:22.000Z,3.89
2024-03-22T00:58:22.000Z,3.26
2024-03-22T00:59:22.000Z,3.91
2024-03-22T01:00:22.000Z,3.25
2024-03-22T01:01:22.000Z,3.94
2024-03-22T01:02:23.000Z,4.42
2024-03-22T01:03:22.000Z,3.36
2024-03-22T01:04:22.000Z,3.26
2024-03-22T01:05:22.000Z,4.09
2024-03-22T01:06:26.000Z,4.95
2024-03-22T01:07:22.000Z,4.54
2024-03-22T01:08:31.000Z,4.44
2024-03-22T01:09:22.000Z,3.4
2024-03-22T01:10:22.000Z,4.54
2024-03-22T01:11:22.000Z,4.92
2024-03-22T01:12:25.000Z,4.09
2024-03-22T01:13:22.000Z,4.75
2024-03-22T01:14:25.000Z,3.36
2024-03-22T01:15:22.000Z,3.97
2024-03-22T01:16:22.000Z,3.01
2024-03-22T01:17:23.000Z,5.07
2024-03-22T01:18:22.000Z,4.42
2024-03-22T01:19:23.000Z,5.18
2024-03-22T01:20:30.000Z,3.11
2024-03-22T01:21:26.000Z,3.74
2024-03-22T01:22:22.000Z,4.29
2024-03-22T01:23:22.000Z,3.88
2024-03-22T01:24:22.000Z,2.82
2024-03-22T01:25:23.000Z,3.94
2024-03-22T01:26:22.000Z,4.41
2024-03-22T01:27:22.000Z,4.78
2024-03-22T01:28:23.000Z,4.71
2024-03-22T01:29:23.000Z,4.76
2024-03-22T01:30:22.000Z,2.99
2024-03-22T01:31:22.000Z,5.66
2024-03-22T01:32:22.000Z,4.22
2024-03-22T01:33:22.000Z,4.84
2024-03-22T01:34:25.000Z,4.78
2024-03-22T01:35:22.000Z,5.04
2024-03-22T01:36:22.000Z,5.21
2024-03-22T01:37:22.000Z,3.55
2024-03-22T01:38:22.000Z,5.11
2024-03-22T01:39:22.000Z,5.5
2024-03-22T01:40:22.000Z,7.08
2024-03-22T01:41:22.000Z,5.04
2024-03-22T01:42:22.000Z,4.26
2024-03-22T01:43:22.000Z,3.59
2024-03-22T01:44:28.000Z,3.56
2024-03-22T01:45:24.000Z,3.44
2024-03-22T01:46:22.000Z,4.12
2024-03-22T01:47:22.000Z,3.29
2024-03-22T01:48:22.000Z,5.01
2024-03-22T01:49:25.000Z,4.21
2024-03-22T01:50:22.000Z,4.29
2024-03-22T01:51:23.000Z,4.26
2024-03-22T01:52:23.000Z,4.89
2024-03-22T01:53:24.000Z,5.25
2024-03-22T01:54:22.000Z,6.05
2024-03-22T01:55:24.000Z,4.91
2024-03-22T01:56:22.000Z,4.7
2024-03-22T01:57:23.000Z,4.65
2024-03-22T01:58:23.000Z,3.21
2024-03-22T01:59:28.000Z,3.46
2024-03-22T02:00:25.000Z,4.93
2024-03-22T02:01:22.000Z,3.19
2024-03-22T02:02:22.000Z,3.54
2024-03-22T02:03:23.000Z,3.15
2024-03-22T02:04:22.000Z,5.85
2024-03-22T02:05:23.000Z,3.76
2024-03-22T02:06:22.000Z,8.49
2024-03-22T02:07:30.000Z,4.7
2024-03-22T02:08:27.000Z,4.15
2024-03-22T02:09:22.000Z,3.14
2024-03-22T02:10:22.000Z,4.44
2024-03-22T02:11:22.000Z,4.47
2024-03-22T02:12:22.000Z,4.06
2024-03-22T02:13:26.000Z,4.96
2024-03-22T02:14:22.000Z,5.74
2024-03-22T02:15:24.000Z,5.22
2024-03-22T02:16:22.000Z,4.39
2024-03-22T02:17:22.000Z,4.68
2024-03-22T02:18:22.000Z,4.4
2024-03-22T02:19:22.000Z,4.92
2024-03-22T02:20:23.000Z,5.4
2024-03-22T02:21:25.000Z,4.08
2024-03-22T02:22:23.000Z,3.8
2024-03-22T02:23:33.000Z,4.62
2024-03-22T02:24:22.000Z,4
2024-03-22T02:25:22.000Z,3.76
2024-03-22T02:26:22.000Z,6.12
2024-03-22T02:27:22.000Z,3.6
2024-03-22T02:28:23.000Z,4.65
2024-03-22T02:29:22.000Z,5.05
2024-03-22T02:30:25.000Z,3.88
2024-03-22T02:31:22.000Z,4.14
2024-03-22T02:32:22.000Z,5.94
2024-03-22T02:33:22.000Z,4
2024-03-22T02:34:23.000Z,4.71
2024-03-22T02:35:22.000Z,4.6
2024-03-22T02:36:22.000Z,5.59
2024-03-22T02:37:36.000Z,4.06
2024-03-22T02:38:22.000Z,5.5
2024-03-22T02:39:22.000Z,3.46
2024-03-22T02:40:22.000Z,4.72
2024-03-22T02:41:22.000Z,4.46
2024-03-22T02:42:30.000Z,4.2
2024-03-22T02:43:38.000Z,3.92
2024-03-22T02:44:22.000Z,4.1
2024-03-22T02:45:22.000Z,3.94
2024-03-22T02:46:22.000Z,5.34
2024-03-22T02:47:23.000Z,6.3
2024-03-22T02:48:22.000Z,4.09
2024-03-22T02:49:22.000Z,5.84
2024-03-22T02:50:22.000Z,5.21
2024-03-22T02:51:22.000Z,4.97
2024-03-22T02:52:22.000Z,4.72
2024-03-22T02:53:23.000Z,3.69
2024-03-22T02:54:22.000Z,4.47
2024-03-22T02:55:22.000Z,5.45
2024-03-22T02:56:22.000Z,4.56
2024-03-22T02:57:22.000Z,3.75
2024-03-22T02:58:23.000Z,6.66
2024-03-22T02:59:25.000Z,4.53
2024-03-22T03:00:23.000Z,6.09
2024-03-22T03:01:22.000Z,5.04
2024-03-22T03:02:23.000Z,5.16
2024-03-22T03:03:22.000Z,6.39
2024-03-22T03:04:23.000Z,4.81
2024-03-22T03:05:23.000Z,4.3
2024-03-22T03:06:22.000Z,4.3
2024-03-22T03:07:25.000Z,4.3
2024-03-22T03:08:23.000Z,5.72
2024-03-22T03:09:22.000Z,3.91
2024-03-22T03:10:22.000Z,5.12
2024-03-22T03:11:22.000Z,4.19
2024-03-22T03:12:22.000Z,4.68
2024-03-22T03:13:22.000Z,3.44
2024-03-22T03:14:22.000Z,4.61
2024-03-22T03:15:22.000Z,6.01
2024-03-22T03:16:22.000Z,5.15
2024-03-22T03:17:24.000Z,5.35
2024-03-22T03:18:22.000Z,4.38
2024-03-22T03:19:30.000Z,4.61
2024-03-22T03:20:23.000Z,3.71
2024-03-22T03:21:23.000Z,5.1
2024-03-22T03:22:23.000Z,4.39
2024-03-22T03:23:23.000Z,4.14
2024-03-22T03:24:23.000Z,4.61
2024-03-22T03:25:23.000Z,4.4
2024-03-22T03:26:22.000Z,5.72
2024-03-22T03:27:23.000Z,5.79
2024-03-22T03:28:23.000Z,4.44
2024-03-22T03:29:26.000Z,4.9
2024-03-22T03:30:23.000Z,5.6
2024-03-22T03:31:22.000Z,4.64
2024-03-22T03:32:23.000Z,3.9
2024-03-22T03:33:26.000Z,4.35
2024-03-22T03:34:23.000Z,4.95
2024-03-22T03:35:27.000Z,5.31
2024-03-22T03:36:23.000Z,5.66
2024-03-22T03:37:23.000Z,5.29
2024-03-22T03:38:23.000Z,4.58
2024-03-22T03:39:22.000Z,5.14
2024-03-22T03:40:23.000Z,4.36
2024-03-22T03:41:28.000Z,4.49
2024-03-22T03:42:23.000Z,3.88
2024-03-22T03:43:22.000Z,4.58
2024-03-22T03:44:28.000Z,3.88
2024-03-22T03:45:31.000Z,5.25
2024-03-22T03:46:23.000Z,5.38
2024-03-22T03:47:23.000Z,7.18
2024-03-22T03:48:23.000Z,6.05
2024-03-22T03:49:23.000Z,5
2024-03-22T03:50:23.000Z,5.09
2024-03-22T03:51:28.000Z,4.82
2024-03-22T03:52:23.000Z,7.29
2024-03-22T03:53:23.000Z,5.25
2024-03-22T03:54:23.000Z,6.59
2024-03-22T03:55:26.000Z,5.38
2024-03-22T03:56:28.000Z,5
2024-03-22T03:57:27.000Z,7.78
2024-03-22T03:58:23.000Z,4.4
2024-03-22T03:59:23.000Z,4.78
2024-03-22T04:00:23.000Z,12.45
2024-03-22T04:01:24.000Z,7.09
2024-03-22T04:02:26.000Z,4.45
2024-03-22T04:03:26.000Z,6.58
2024-03-22T04:04:23.000Z,3.75
2024-03-22T04:05:23.000Z,6.05
2024-03-22T04:06:22.000Z,5.44
2024-03-22T04:07:23.000Z,4.26
2024-03-22T04:08:23.000Z,4.09
2024-03-22T04:09:28.000Z,4.08
2024-03-22T04:10:23.000Z,5.25
2024-03-22T04:11:23.000Z,5.96
2024-03-22T04:12:23.000Z,4.41
2024-03-22T04:13:24.000Z,5.1
2024-03-22T04:14:23.000Z,4.68
2024-03-22T04:15:24.000Z,4.31
2024-03-22T04:16:23.000Z,5.35
2024-03-22T04:17:23.000Z,10.06
2024-03-22T04:18:23.000Z,9.89
2024-03-22T04:19:29.000Z,5.5
2024-03-22T04:20:23.000Z,6.01
2024-03-22T04:21:33.000Z,7.01
2024-03-22T04:22:31.000Z,7.25
2024-03-22T04:23:24.000Z,7.01
2024-03-22T04:24:23.000Z,7.12
2024-03-22T04:25:23.000Z,7.6
2024-03-22T04:26:22.000Z,8.55
2024-03-22T04:27:22.000Z,7.21
2024-03-22T04:28:23.000Z,7.89
2024-03-22T04:29:22.000Z,7.48
2024-03-22T04:30:23.000Z,9.16
2024-03-22T04:31:23.000Z,13.18
2024-03-22T04:32:23.000Z,9.69
2024-03-22T04:33:23.000Z,10.35
2024-03-22T04:34:23.000Z,11.89
2024-03-22T04:35:23.000Z,9.09
2024-03-22T04:36:23.000Z,8.62
2024-03-22T04:37:26.000Z,9.86
2024-03-22T04:38:23.000Z,12.3
2024-03-22T04:39:23.000Z,9.84
2024-03-22T04:40:22.000Z,12.02
2024-03-22T04:41:23.000Z,8.82
2024-03-22T04:42:23.000Z,11.38
2024-03-22T04:43:24.000Z,12.38
2024-03-22T04:44:23.000Z,9.02
2024-03-22T04:45:23.000Z,8.69
2024-03-22T04:46:22.000Z,10.5
2024-03-22T04:47:23.000Z,14.52
2024-03-22T04:48:23.000Z,7.89
2024-03-22T04:49:23.000Z,11.75
2024-03-22T04:50:22.000Z,9.33
2024-03-22T04:51:22.000Z,7.46
2024-03-22T04:52:23.000Z,15.59
2024-03-22T04:53:23.000Z,10.77
2024-03-22T04:54:29.000Z,10.46
2024-03-22T04:55:25.000Z,6.99
2024-03-22T04:56:23.000Z,8.52
2024-03-22T04:57:22.000Z,6.58
2024-03-22T04:58:23.000Z,7.93
2024-03-22T04:59:22.000Z,7.22
2024-03-22T05:00:22.000Z,6.66
2024-03-22T05:01:30.000Z,5.85
2024-03-22T05:02:24.000Z,6.61
2024-03-22T05:03:22.000Z,7.65
2024-03-22T05:04:22.000Z,7.69
2024-03-22T05:05:22.000Z,6.16
2024-03-22T05:06:22.000Z,6.02
2024-03-22T05:07:22.000Z,7.86
2024-03-22T05:08:22.000Z,6.89
2024-03-22T05:09:22.000Z,8.69
2024-03-22T05:10:22.000Z,5.66
2024-03-22T05:11:22.000Z,7.72
2024-03-22T05:12:22.000Z,6.5
2024-03-22T05:13:23.000Z,6.92
2024-03-22T05:14:23.000Z,6.92
2024-03-22T05:15:22.000Z,6.1
2024-03-22T05:16:22.000Z,6.96
2024-03-22T05:17:22.000Z,6.45
2024-03-22T05:18:22.000Z,7.31
2024-03-22T05:19:22.000Z,6.46
2024-03-22T05:20:22.000Z,11.52
2024-03-22T05:21:22.000Z,8.85
2024-03-22T05:22:23.000Z,5.35
2024-03-22T05:23:22.000Z,6.71
2024-03-22T05:24:22.000Z,5.61
2024-03-22T05:25:22.000Z,5.16
2024-03-22T05:26:22.000Z,6.01
2024-03-22T05:27:22.000Z,5.5
2024-03-22T05:28:22.000Z,8.8
2024-03-22T05:29:22.000Z,7.18
2024-03-22T05:30:22.000Z,8.35
2024-03-22T05:31:22.000Z,7.57
2024-03-22T05:32:25.000Z,8.76
2024-03-22T05:33:25.000Z,7.54
2024-03-22T05:34:22.000Z,8.46
2024-03-22T05:35:22.000Z,9.01
2024-03-22T05:36:22.000Z,11.12
2024-03-22T05:37:22.000Z,7.76
2024-03-22T05:38:22.000Z,8.16
2024-03-22T05:39:22.000Z,7.86
2024-03-22T05:40:22.000Z,7.32
2024-03-22T05:41:22.000Z,13.25
2024-03-22T05:42:23.000Z,8.65
2024-03-22T05:43:22.000Z,12.01
2024-03-22T05:44:22.000Z,13.76
2024-03-22T05:45:27.000Z,9.24
2024-03-22T05:46:22.000Z,9.66
2024-03-22T05:47:22.000Z,13.55
2024-03-22T05:48:22.000Z,12.72
2024-03-22T05:49:28.000Z,11.49
2024-03-22T05:50:23.000Z,9.29
2024-03-22T05:51:22.000Z,9.59
2024-03-22T05:52:23.000Z,9.08
2024-03-22T05:53:22.000Z,18.27
2024-03-22T05:54:25.000Z,20.21
2024-03-22T05:55:22.000Z,21.15
2024-03-22T05:56:23.000Z,26.83
2024-03-22T05:57:23.000Z,21.75
2024-03-22T05:58:22.000Z,12.48
2024-03-22T05:59:22.000Z,11.04
2024-03-22T06:00:22.000Z,8.45
2024-03-22T06:01:25.000Z,8.62
2024-03-22T06:02:25.000Z,8.99
2024-03-22T06:03:23.000Z,8.44
2024-03-22T06:04:23.000Z,9.4
2024-03-22T06:05:22.000Z,9.14
2024-03-22T06:06:26.000Z,11.55
2024-03-22T06:07:22.000Z,13.06
2024-03-22T06:08:22.000Z,8.76
2024-03-22T06:09:26.000Z,6.76
2024-03-22T06:10:23.000Z,6.81
2024-03-22T06:11:35.000Z,6.84
2024-03-22T06:12:25.000Z,7.62
2024-03-22T06:13:23.000Z,7.6
2024-03-22T06:14:22.000Z,9.07
2024-03-22T06:15:24.000Z,6.39
2024-03-22T06:16:22.000Z,7.59
2024-03-22T06:17:22.000Z,7.07
2024-03-22T06:18:22.000Z,7.41
2024-03-22T06:19:23.000Z,7.66
2024-03-22T06:20:22.000Z,8.67
2024-03-22T06:21:26.000Z,12.6
2024-03-22T06:22:22.000Z,10.96
2024-03-22T06:23:23.000Z,10.18
2024-03-22T06:24:26.000Z,11.05
2024-03-22T06:25:22.000Z,10.2
2024-03-22T06:26:22.000Z,10.68
2024-03-22T06:27:26.000Z,19.14
2024-03-22T06:28:23.000Z,12.21
2024-03-22T06:29:26.000Z,52.25
2024-03-22T06:30:22.000Z,37.2
2024-03-22T06:31:22.000Z,31.55
2024-03-22T06:32:22.000Z,35.54
2024-03-22T06:33:23.000Z,26.16
2024-03-22T06:34:22.000Z,30.56
2024-03-22T06:35:22.000Z,26.05
2024-03-22T06:36:23.000Z,23.1
2024-03-22T06:37:22.000Z,24.22
2024-03-22T06:38:22.000Z,30
2024-03-22T06:39:28.000Z,21.79
2024-03-22T06:40:22.000Z,23.44
2024-03-22T06:41:23.000Z,18.95
2024-03-22T06:42:22.000Z,16.21
2024-03-22T06:43:22.000Z,15.22
2024-03-22T06:44:22.000Z,14.36
2024-03-22T06:45:23.000Z,23.29
2024-03-22T06:46:22.000Z,16.12
2024-03-22T06:47:24.000Z,15.69
2024-03-22T06:48:22.000Z,18.01
2024-03-22T06:49:22.000Z,14.08
2024-03-22T06:50:25.000Z,18.5
2024-03-22T06:51:22.000Z,12.04
2024-03-22T06:52:22.000Z,12.62
2024-03-22T06:53:22.000Z,13.68
2024-03-22T06:54:22.000Z,14.89
2024-03-22T06:55:23.000Z,12.2
2024-03-22T06:56:23.000Z,12.6
2024-03-22T06:57:22.000Z,11.82
2024-03-22T06:58:25.000Z,13.77
2024-03-22T06:59:35.000Z,15.08
2024-03-22T07:00:22.000Z,11.91
2024-03-22T07:01:22.000Z,14.21
2024-03-22T07:02:23.000Z,14.03
2024-03-22T07:03:24.000Z,11.77
2024-03-22T07:04:22.000Z,11.74
2024-03-22T07:05:23.000Z,15.35
2024-03-22T07:06:22.000Z,15.84
2024-03-22T07:07:23.000Z,12.54
2024-03-22T07:08:22.000Z,11.51
2024-03-22T07:09:22.000Z,13.6
2024-03-22T07:10:23.000Z,10.15
2024-03-22T07:11:25.000Z,13
2024-03-22T07:12:23.000Z,18.8
2024-03-22T07:13:22.000Z,11.88
2024-03-22T07:14:22.000Z,10.46
2024-03-22T07:15:24.000Z,13.05
2024-03-22T07:16:22.000Z,28.34
2024-03-22T07:17:25.000Z,34.88
2024-03-22T07:18:22.000Z,71.81
2024-03-22T07:19:22.000Z,35.61
2024-03-22T07:20:22.000Z,31.35
2024-03-22T07:21:30.000Z,31.62
2024-03-22T07:22:22.000Z,19.54
2024-03-22T07:23:22.000Z,16.31
2024-03-22T07:24:25.000Z,14.12
2024-03-22T07:25:22.000Z,12.86
2024-03-22T07:26:22.000Z,12.76
2024-03-22T07:27:22.000Z,7.65
2024-03-22T07:28:23.000Z,12.29
2024-03-22T07:29:22.000Z,11.49
2024-03-22T07:30:22.000Z,12.11
2024-03-22T07:31:22.000Z,13.08
2024-03-22T07:32:22.000Z,11.96
2024-03-22T07:33:23.000Z,9.82
2024-03-22T07:34:23.000Z,11.49
2024-03-22T07:35:22.000Z,11.9
2024-03-22T07:36:22.000Z,9.19
2024-03-22T07:37:22.000Z,10.38
2024-03-22T07:38:22.000Z,8.99
2024-03-22T07:39:22.000Z,9.85
2024-03-22T07:40:22.000Z,8.81
2024-03-22T07:41:23.000Z,9.76
2024-03-22T07:42:23.000Z,7.76
2024-03-22T07:43:22.000Z,11.84
2024-03-22T07:44:22.000Z,9.68
2024-03-22T07:45:22.000Z,7.99
2024-03-22T07:46:23.000Z,9.24
2024-03-22T07:47:23.000Z,9.69
2024-03-22T07:48:22.000Z,9.51
2024-03-22T07:49:23.000Z,9.24
2024-03-22T07:50:22.000Z,8.96
2024-03-22T07:51:22.000Z,14.36
2024-03-22T07:52:22.000Z,10.3
2024-03-22T07:53:26.000Z,10.5
2024-03-22T07:54:22.000Z,8.62
2024-03-22T07:55:24.000Z,11.55
2024-03-22T07:56:23.000Z,8.14
2024-03-22T07:57:25.000Z,8.24
2024-03-22T07:58:22.000Z,8.34
2024-03-22T07:59:22.000Z,9.46
2024-03-22T08:00:22.000Z,8
2024-03-22T08:01:22.000Z,6.54
2024-03-22T08:02:22.000Z,6.91
2024-03-22T08:03:23.000Z,7.84
2024-03-22T08:04:22.000Z,6.94
2024-03-22T08:05:23.000Z,6.14
2024-03-22T08:06:25.000Z,6.65
2024-03-22T08:07:22.000Z,6
2024-03-22T08:08:22.000Z,6.56
2024-03-22T08:09:23.000Z,6.52
2024-03-22T08:10:22.000Z,9.14
2024-03-22T08:11:22.000Z,9.81
2024-03-22T08:12:25.000Z,14.73
2024-03-22T08:13:22.000Z,9
2024-03-22T08:14:22.000Z,8.24
2024-03-22T08:15:22.000Z,8.9
2024-03-22T08:16:22.000Z,17.7
2024-03-22T08:17:22.000Z,6.94
2024-03-22T08:18:22.000Z,7.38
2024-03-22T08:19:23.000Z,12.3
2024-03-22T08:20:22.000Z,6.57
2024-03-22T08:21:23.000Z,6.89
2024-03-22T08:22:22.000Z,5.89
2024-03-22T08:23:24.000Z,5.93
2024-03-22T08:24:23.000Z,5.79
2024-03-22T08:25:23.000Z,6.31
2024-03-22T08:26:25.000Z,5.3
2024-03-22T08:27:42.000Z,6.1
2024-03-22T08:28:48.000Z,7.11
2024-03-22T08:29:47.000Z,5.85
2024-03-22T08:30:42.000Z,5.8
2024-03-22T08:31:42.000Z,5.6
2024-03-22T08:32:48.000Z,6.04
2024-03-22T08:33:42.000Z,5.39
2024-03-22T08:34:43.000Z,8.01
2024-03-22T08:35:43.000Z,5.96
2024-03-22T08:36:43.000Z,5.19
2024-03-22T08:37:42.000Z,8.71
2024-03-22T08:38:42.000Z,6.39
2024-03-22T08:39:42.000Z,7.3
2024-03-22T08:40:43.000Z,10.34
2024-03-22T08:41:43.000Z,8.29
2024-03-22T08:42:43.000Z,11.92
2024-03-22T08:43:42.000Z,9.41
2024-03-22T08:44:42.000Z,5.85
2024-03-22T08:45:42.000Z,8.68
2024-03-22T08:46:42.000Z,8.38
2024-03-22T08:47:42.000Z,5.55
2024-03-22T08:48:42.000Z,7.38
2024-03-22T08:49:42.000Z,7.36
2024-03-22T08:50:43.000Z,5.29
2024-03-22T08:51:42.000Z,6.07
2024-03-22T08:52:42.000Z,9.26
2024-03-22T08:53:45.000Z,6.43
2024-03-22T08:54:45.000Z,5.61
2024-03-22T08:55:48.000Z,7.66
2024-03-22T08:56:42.000Z,5.44
2024-03-22T08:57:42.000Z,5.51
2024-03-22T08:58:42.000Z,6.32
2024-03-22T08:59:42.000Z,8.38
2024-03-22T09:00:28.000Z,8.57
2024-03-22T09:01:31.000Z,5.54
2024-03-22T09:02:22.000Z,7.06
2024-03-22T09:03:23.000Z,6.11
2024-03-22T09:04:22.000Z,5.71
2024-03-22T09:05:22.000Z,6
2024-03-22T09:06:23.000Z,10.45
2024-03-22T09:07:22.000Z,5.98
2024-03-22T09:08:31.000Z,7.54
2024-03-22T09:09:25.000Z,5.81
2024-03-22T09:10:22.000Z,5.88
2024-03-22T09:11:23.000Z,6.21
2024-03-22T09:12:22.000Z,6.56
2024-03-22T09:13:22.000Z,10.96
2024-03-22T09:14:22.000Z,10.26
2024-03-22T09:15:27.000Z,5.62
2024-03-22T09:16:24.000Z,13.55
2024-03-22T09:17:22.000Z,6.18
2024-03-22T09:18:23.000Z,8.32
2024-03-22T09:19:23.000Z,6.89
2024-03-22T09:20:22.000Z,5.66
2024-03-22T09:21:23.000Z,7.86
2024-03-22T09:22:23.000Z,5.6
2024-03-22T09:23:23.000Z,4.64
2024-03-22T09:24:22.000Z,10.51
2024-03-22T09:25:27.000Z,6.05
2024-03-22T09:26:22.000Z,13.32
2024-03-22T09:27:23.000Z,13.62
2024-03-22T09:28:22.000Z,14.15
2024-03-22T09:29:22.000Z,12.45
2024-03-22T09:30:24.000Z,7.14
2024-03-22T09:31:22.000Z,5.65
2024-03-22T09:32:22.000Z,5.52
2024-03-22T09:33:23.000Z,13.95
2024-03-22T09:34:22.000Z,10.09
2024-03-22T09:35:22.000Z,5.15
2024-03-22T09:36:26.000Z,4.82
2024-03-22T09:37:24.000Z,5.43
2024-03-22T09:38:22.000Z,12.84
2024-03-22T09:39:22.000Z,4.74
2024-03-22T09:40:23.000Z,6.04
2024-03-22T09:41:26.000Z,8.62
2024-03-22T09:42:25.000Z,4.05
2024-03-22T09:43:23.000Z,5.35
2024-03-22T09:44:27.000Z,5.04
2024-03-22T09:45:24.000Z,4.69
2024-03-22T09:46:32.000Z,5.62
2024-03-22T09:47:24.000Z,5.89
2024-03-22T09:48:24.000Z,4.6
2024-03-22T09:49:25.000Z,5.06
2024-03-22T09:50:23.000Z,8.31
2024-03-22T09:51:24.000Z,5.32
2024-03-22T09:52:23.000Z,4.21
2024-03-22T09:53:25.000Z,4.85
2024-03-22T09:54:25.000Z,5.4
2024-03-22T09:55:25.000Z,6.76
2024-03-22T09:56:25.000Z,6.68
2024-03-22T09:57:26.000Z,4.76
2024-03-22T09:58:23.000Z,5.34
2024-03-22T09:59:23.000Z,7.06
2024-03-22T10:00:26.000Z,3.66
2024-03-22T10:01:24.000Z,4.42
2024-03-22T10:02:23.000Z,4.14
2024-03-22T10:03:22.000Z,4.58
2024-03-22T10:04:22.000Z,7.91
2024-03-22T10:05:26.000Z,5.06
2024-03-22T10:06:23.000Z,3.94
2024-03-22T10:07:23.000Z,7.04
2024-03-22T10:08:24.000Z,9.3
2024-03-22T10:09:29.000Z,5.04
2024-03-22T10:10:23.000Z,4.54
2024-03-22T10:11:27.000Z,4.18
2024-03-22T10:12:22.000Z,3.62
2024-03-22T10:13:30.000Z,9.66
2024-03-22T10:14:23.000Z,4.86
2024-03-22T10:15:24.000Z,4.21
2024-03-22T10:16:23.000Z,11.04
2024-03-22T10:17:26.000Z,7.1
2024-03-22T10:18:23.000Z,3.69
2024-03-22T10:19:23.000Z,3.96
2024-03-22T10:20:26.000Z,4.31
2024-03-22T10:21:22.000Z,3.5
2024-03-22T10:22:22.000Z,4.05
2024-03-22T10:23:22.000Z,4.72
2024-03-22T10:24:22.000Z,3.96
2024-03-22T10:25:23.000Z,4.68
2024-03-22T10:26:24.000Z,3.06
2024-03-22T10:27:22.000Z,3.44
2024-03-22T10:28:22.000Z,5.66
2024-03-22T10:29:23.000Z,4.22
2024-03-22T10:30:24.000Z,4.3
2024-03-22T10:31:23.000Z,6.02
2024-03-22T10:32:24.000Z,5.48
2024-03-22T10:33:26.000Z,5.12
2024-03-22T10:34:24.000Z,3.8
2024-03-22T10:35:25.000Z,6.22
2024-03-22T10:36:23.000Z,5.72
2024-03-22T10:37:24.000Z,4.35
2024-03-22T10:38:23.000Z,6.35
2024-03-22T10:39:25.000Z,10.31
2024-03-22T10:40:23.000Z,7
2024-03-22T10:41:22.000Z,4.92
2024-03-22T10:42:23.000Z,4.15
2024-03-22T10:43:22.000Z,3.82
2024-03-22T10:44:22.000Z,4.91
2024-03-22T10:45:27.000Z,3.18
2024-03-22T10:46:30.000Z,3.95
2024-03-22T10:47:29.000Z,5.5
2024-03-22T10:48:28.000Z,4.54
2024-03-22T10:49:23.000Z,7.51
2024-03-22T10:50:23.000Z,4.68
2024-03-22T10:51:25.000Z,6.54
2024-03-22T10:52:23.000Z,4.65
2024-03-22T10:53:25.000Z,4.4
2024-03-22T10:54:32.000Z,8.96
2024-03-22T10:55:30.000Z,2.96
2024-03-22T10:56:24.000Z,4
2024-03-22T10:57:23.000Z,3.86
2024-03-22T10:58:24.000Z,3.9
2024-03-22T10:59:35.000Z,3.74
2024-03-22T11:00:28.000Z,5.21
2024-03-22T11:01:24.000Z,4.76
2024-03-22T11:02:27.000Z,4.18
2024-03-22T11:03:25.000Z,8.55
2024-03-22T11:04:30.000Z,13
2024-03-22T11:05:23.000Z,26.99
2024-03-22T11:06:23.000Z,16.41
2024-03-22T11:07:22.000Z,7.25
2024-03-22T11:08:27.000Z,7.3
2024-03-22T11:09:23.000Z,4.64
2024-03-22T11:10:28.000Z,4.64
2024-03-22T11:11:23.000Z,9.4
2024-03-22T11:12:25.000Z,5.98
2024-03-22T11:13:23.000Z,5.69
2024-03-22T11:14:22.000Z,4.29
2024-03-22T11:15:22.000Z,6.42
2024-03-22T11:16:22.000Z,4.52
2024-03-22T11:17:26.000Z,4.34
2024-03-22T11:18:33.000Z,3.62
2024-03-22T11:19:22.000Z,6.3
2024-03-22T11:20:22.000Z,5.45
2024-03-22T11:21:25.000Z,3.42
2024-03-22T11:22:22.000Z,7.15
2024-03-22T11:23:22.000Z,3.62
2024-03-22T11:24:22.000Z,5.15
2024-03-22T11:25:22.000Z,3.75
2024-03-22T11:26:22.000Z,4.12
2024-03-22T11:27:22.000Z,3.3
2024-03-22T11:28:25.000Z,4.15
2024-03-22T11:29:22.000Z,3.82
2024-03-22T11:30:25.000Z,5.03
2024-03-22T11:31:27.000Z,4.82
2024-03-22T11:32:26.000Z,5.18
2024-03-22T11:33:22.000Z,12.09
2024-03-22T11:34:23.000Z,3.08
2024-03-22T11:35:23.000Z,4.06
2024-03-22T11:36:23.000Z,3.3
2024-03-22T11:37:22.000Z,5.45
2024-03-22T11:38:22.000Z,4.06
2024-03-22T11:39:22.000Z,3.08
2024-03-22T11:40:24.000Z,17.67
2024-03-22T11:41:28.000Z,9.66
2024-03-22T11:42:22.000Z,3.7
2024-03-22T11:43:23.000Z,4.7
2024-03-22T11:44:24.000Z,2.98
2024-03-22T11:45:24.000Z,3.2
2024-03-22T11:46:24.000Z,2.14
2024-03-22T11:47:23.000Z,3.16
2024-03-22T11:48:30.000Z,3.46
2024-03-22T11:49:22.000Z,3.61
2024-03-22T11:50:22.000Z,2.7
2024-03-22T11:51:23.000Z,3.2
2024-03-22T11:52:25.000Z,3.06
2024-03-22T11:53:22.000Z,7.99
2024-03-22T11:54:22.000Z,6.36
2024-03-22T11:55:26.000Z,4.15
2024-03-22T11:56:35.000Z,6.52
2024-03-22T11:57:23.000Z,8.34
2024-03-22T11:58:22.000Z,2.81
2024-03-22T11:59:22.000Z,2.31
2024-03-22T12:00:24.000Z,4.01
2024-03-22T12:02:32.000Z,5
2024-03-22T12:03:31.000Z,2.82
2024-03-22T12:04:23.000Z,3.94
2024-03-22T12:05:22.000Z,3
2024-03-22T12:06:22.000Z,1.84
2024-03-22T12:07:23.000Z,3.97
2024-03-22T12:08:23.000Z,3.22
2024-03-22T12:09:22.000Z,1.8
2024-03-22T12:10:22.000Z,2.38
2024-03-22T12:11:26.000Z,3.99
2024-03-22T12:12:26.000Z,7.11
2024-03-22T12:13:27.000Z,9.49
2024-03-22T12:14:22.000Z,4.28
2024-03-22T12:15:22.000Z,3.21
2024-03-22T12:16:22.000Z,6.02
2024-03-22T12:17:22.000Z,3.64
2024-03-22T12:18:30.000Z,2.42
2024-03-22T12:19:22.000Z,2.92
2024-03-22T12:20:23.000Z,2.51
2024-03-22T12:21:23.000Z,2.78
2024-03-22T12:22:22.000Z,2.38
2024-03-22T12:23:22.000Z,7.62
2024-03-22T12:24:31.000Z,6.5
2024-03-22T12:25:22.000Z,5.21
2024-03-22T12:26:22.000Z,3.44
2024-03-22T12:27:23.000Z,4.15
2024-03-22T12:28:22.000Z,3.84
2024-03-22T12:29:22.000Z,4.75
2024-03-22T12:30:22.000Z,6.94
2024-03-22T12:31:22.000Z,6.38
2024-03-22T12:32:22.000Z,7.05
2024-03-22T12:33:22.000Z,8.78
2024-03-22T12:34:23.000Z,4.88
2024-03-22T12:35:34.000Z,3.91
2024-03-22T12:36:22.000Z,4.21
2024-03-22T12:37:24.000Z,5.68
2024-03-22T12:38:22.000Z,2.81
2024-03-22T12:39:22.000Z,5.84
2024-03-22T12:40:30.000Z,3.04
2024-03-22T12:41:23.000Z,2.06
2024-03-22T12:42:22.000Z,3.78
2024-03-22T12:43:23.000Z,3.11
2024-03-22T12:44:22.000Z,3.79
2024-03-22T12:45:23.000Z,3.42
2024-03-22T12:46:23.000Z,2.85
2024-03-22T12:47:22.000Z,2.85
2024-03-22T12:48:22.000Z,9.3
2024-03-22T12:49:22.000Z,6.64
2024-03-22T12:50:22.000Z,8.51
2024-03-22T12:51:22.000Z,2.7
2024-03-22T12:52:23.000Z,4.64
2024-03-22T12:53:22.000Z,3.8
2024-03-22T12:54:24.000Z,4.31
2024-03-22T12:55:22.000Z,2.78
2024-03-22T12:56:22.000Z,9.76
2024-03-22T12:57:25.000Z,4.29
2024-03-22T12:58:22.000Z,4.51
2024-03-22T12:59:32.000Z,4.3
2024-03-22T13:00:22.000Z,3.91
2024-03-22T13:01:22.000Z,2.08
2024-03-22T13:02:22.000Z,5.51
2024-03-22T13:03:22.000Z,18.11
2024-03-22T13:04:22.000Z,17.08
2024-03-22T13:05:22.000Z,15.42
2024-03-22T13:06:29.000Z,8.8
2024-03-22T13:07:38.000Z,3.2
2024-03-22T13:08:25.000Z,6.05
2024-03-22T13:09:23.000Z,12.58
2024-03-22T13:10:22.000Z,8.66
2024-03-22T13:11:22.000Z,5.49
2024-03-22T13:12:23.000Z,5.07
2024-03-22T13:13:22.000Z,2.66
2024-03-22T13:14:22.000Z,8.5
2024-03-22T13:15:22.000Z,4.12
2024-03-22T13:16:23.000Z,3.96
2024-03-22T13:17:22.000Z,2.58
2024-03-22T13:18:23.000Z,2.56
2024-03-22T13:19:22.000Z,4.05